Historyczne dane pomiarowe

Dodano dane terminowe – wersja testowa.

Dane z okresu 1951-2019

Wersja bazy: 1.34 [2019-03-16, lista zmian], aktualizacja planowana na 2019-04-15

Dane meteo z obszaru Polski uzyskane na podstawie danych udostępnionych przez Instytut Meteorologii i Gospodarki Wodnej – Państwowy Instytut Badawczy.

 

Wybierz Datę:    

       

TemperaturaWilgotnośćWiatrCiśnienieOpadyŚniegCzas trwania zjawisk
 Stacja t tx tn tng RH VA  wxwx mslp ppp RRR   cm mm wxwxwxwxwxwxwx
1961-08-14 10.1 15.4 3.6--- 2.3 0.3---- 0.0------------
1961-08-13 9.3 12.8 8.0--- 6.7 1.0---- 14.5------------
1961-08-12 15.5 22.0 12.0--- 7.0 1.3---- 24.0------------
1961-08-11 21.3 30.0 14.0--- 1.3 1.3---- 0.1------------
1961-08-10 21.1 27.2 13.8--- 2.3 1.0---- 0.0------------
1961-08-09 21.0 28.8 13.7--- 5.3 1.0---- 2.4------------
1961-08-08 18.6 23.8 15.5--- 4.7 1.7---- 0.0------------
1961-08-07 20.0 26.9 9.5--- 3.3 1.3---- 0.0------------
1961-08-06 18.1 27.4 9.8--- 0.0 1.0---- 0.0------------
1961-08-05 15.5 21.0 11.0--- 4.3 1.0---- 0.0------------
1961-08-04 12.0 17.6 9.8--- 6.0 0.7---- 0.0------------
1961-08-03 13.2 19.4 9.8--- 7.3 0.0---- 9.4------------
1961-08-02 15.4 22.0 5.6--- 2.3 1.0---- 0.0------------
1961-08-01 12.3 18.2 7.2--- 3.7 2.0---- 0.0------------
1961-07-31 9.8 13.5 7.0--- 7.7 3.7---- 3.0------------
1961-07-30 7.6 8.8 6.8--- 8.0 0.3---- 30.8------------
1961-07-29 10.2 16.3 8.0--- 8.0 1.0---- 46.0------------
1961-07-28 18.8 26.5 13.7--- 5.3 1.3---- 15.4------------
1961-07-27 20.9 23.8 9.3--- 3.0 3.7---- 0.0------------
1961-07-26 12.7 18.9 4.1--- 2.7 1.7---- 0.0------------
1961-07-25 10.5 12.7 8.5--- 7.0 0.3---- 0.0------------
1961-07-24 11.2 14.2 9.5--- 7.3 1.0---- 0.0------------
1961-07-23 13.2 17.1 5.4--- 5.3 0.0---- 0.2------------
1961-07-22 12.0 16.6 10.3--- 6.7 2.0---- 3.2------------
1961-07-21 12.3 15.8 6.5--- 5.0 1.3---- 1.2------------
1961-07-20 10.7 12.9 6.6--- 7.7 0.3---- 15.0------------
1961-07-19 12.1 17.0 7.8--- 5.7 0.7---- 0.0------------
1961-07-18 11.7 16.6 5.1--- 5.0 0.3---- 0.0------------
1961-07-17 13.0 19.4 10.0--- 2.7 3.0---- 0.0------------
1961-07-16 13.9 19.0 10.8--- 5.0 3.7---- 0.0------------
1961-07-15 16.0 21.8 7.0--- 5.3 2.7---- 5.4------------
1961-07-14 10.4 15.8 7.5--- 3.7 2.7---- 0.0------------
1961-07-13 17.6 24.6 9.5--- 3.0 6.7---- 19.0------------
1961-07-12 17.5 23.5 7.5--- 4.3 0.3---- 0.0------------
1961-07-11 13.1 18.0 5.6--- 3.0 1.0---- 0.0------------
1961-07-10 11.7 17.0 8.0--- 6.7 2.3---- 6.3------------
1961-07-09 12.3 18.9 6.5--- 5.3 2.7---- 1.7------------
1961-07-08 12.6 17.3 6.0--- 4.7 1.3---- 0.0------------
1961-07-07 11.1 15.3 2.0--- 5.0 0.7---- 0.0------------
1961-07-06 9.5 14.0 3.1--- 4.3 2.7---- 0.0------------
1961-07-05 9.8 19.1 7.0--- 5.7 1.3---- 0.0------------
1961-07-04 21.2 27.4 12.5--- 4.0 3.0---- 4.6------------
1961-07-03 18.9 26.5 9.0--- 0.7 1.0---- 0.0------------
1961-07-02 17.4 24.5 9.0--- 0.7 1.3---- 0.0------------
1961-07-01 16.5 22.6 7.5--- 1.7 0.7---- 0.0------------
1961-06-30 13.6 18.6 7.0--- 2.0 2.3---- 0.0------------
1961-06-29 11.2 16.6 4.1--- 5.3 0.7---- 0.0------------
1961-06-28 10.2 17.6 9.0--- 7.3 3.0---- 6.7------------
1961-06-27 20.8 28.4 11.0--- 2.0 3.0---- 14.2------------
1961-06-26 19.8 27.4 10.9--- 3.0 1.0---- 0.0------------
1961-06-25 18.0 26.0 7.0--- 2.0 2.7---- 0.0------------
1961-06-24 16.4 22.5 9.0--- 3.3 2.3---- 0.0------------
1961-06-23 15.0 19.6 11.8--- 6.0 1.7---- 0.0------------
1961-06-22 16.0 22.5 5.6--- 4.7 1.7---- 13.0------------
1961-06-21 14.4 21.0 4.2--- 2.7 1.7---- 0.0------------
1961-06-20 12.7 16.5 11.0--- 6.0 2.3---- 0.0------------
1961-06-19 18.3 25.0 11.0--- 4.0 2.7---- 0.0------------
1961-06-18 16.0 22.5 6.5--- 3.3 2.3---- 0.0------------
1961-06-17 12.6 19.3 3.7--- 2.7 1.3---- 0.0------------
1961-06-16 10.4 17.5 4.1--- 3.7 1.7---- 0.0------------
255.7 ms

 

Źródłem pochodzenia danych jest Instytut Meteorologii i Gospodarki Wodnej – Państwowy Instytut Badawczy. Dane Instytutu Meteorologii i Gospodarki Wodnej – Państwowego Instytutu Badawczego zostały przetworzone.

Dane źródłowe można odnaleźć na stronie https://dane.imgw.pl